Time;durP1;ratioP1;P1;durP2;ratioP2;P2;SDS_P1;SDS_P2;PMS_P1;PMS_P2;Temp;Humidity;BMP_temperature;BMP_pressure;BME280_temperature;BME280_humidity;BME280_pressure;Samples;Min_cycle;Max_cycle;Signal;HPM_P1;HPM_P2
2022/09/15 07:49:26;;;;;;;13.18;5.82;;;;;;;;;;5102548;27;20108;-80
2022/09/15 07:51:53;;;;;;;10.50;5.47;;;;;;;;;;5091450;28;20283;-80
2022/09/15 07:54:20;;;;;;;9.60;5.20;;;;;;;;;;5103389;28;20051;-82
2022/09/15 07:56:49;;;;;;;7.90;4.55;;;;;;;;;;5108110;28;20036;-80
2022/09/15 07:59:16;;;;;;;8.35;4.78;;;;;;;;;;5091038;28;20048;-80
2022/09/15 08:01:44;;;;;;;5.38;4.82;;;;;;;;;;5088207;28;20075;-80
2022/09/15 08:04:11;;;;;;;6.10;4.82;;;;;;;;;;5109965;28;20040;-80
2022/09/15 08:06:38;;;;;;;11.50;4.38;;;;;;;;;;5113004;28;20055;-80
2022/09/15 08:09:06;;;;;;;6.78;4.50;;;;;;;;;;5104362;28;20051;-80
2022/09/15 08:11:33;;;;;;;7.45;4.32;;;;;;;;;;5109664;28;20123;-80
2022/09/15 08:14:02;;;;;;;5.60;4.18;;;;;;;;;;5113786;28;20123;-80
2022/09/15 08:16:29;;;;;;;5.85;3.78;;;;;;;;;;5110588;28;20043;-80
2022/09/15 08:18:56;;;;;;;4.45;3.72;;;;;;;;;;5105209;28;20040;-80
2022/09/15 08:21:24;;;;;;;4.50;4.07;;;;;;;;;;5105350;28;20085;-80
2022/09/15 08:23:54;;;;;;;5.35;3.65;;;;;;;;;;5111362;28;20276;-80
2022/09/15 08:26:21;;;;;;;3.22;2.92;;;;;;;;;;5104984;28;20040;-79
2022/09/15 08:28:49;;;;;;;4.90;3.72;;;;;;;;;;5105833;28;20040;-79
2022/09/15 08:31:17;;;;;;;3.95;3.15;;;;;;;;;;5093867;28;20143;-79
2022/09/15 08:33:48;;;;;;;6.65;3.45;;;;;;;;;;5095941;28;20127;-79
2022/09/15 08:36:16;;;;;;;4.88;3.67;;;;;;;;;;5094673;28;20050;-79
2022/09/15 08:38:44;;;;;;;5.03;3.47;;;;;;;;;;5103484;28;20043;-80
2022/09/15 08:41:37;;;;;;;4.05;3.20;;;;;;;;;;5094740;28;20032;-79
2022/09/15 08:44:17;;;;;;;2.97;2.67;;;;;;;;;;5100146;28;20043;-79
2022/09/15 08:46:59;;;;;;;6.90;2.85;;;;;;;;;;5095871;28;20046;-79
2022/09/15 08:49:29;;;;;;;3.45;2.47;;;;;;;;;;5096366;28;20041;-79
2022/09/15 08:52:20;;;;;;;3.35;2.58;;;;;;;;;;5099967;28;20039;-79
2022/09/15 08:54:49;;;;;;;3.28;2.10;;;;;;;;;;5097279;28;20050;-78
2022/09/15 08:57:19;;;;;;;2.40;2.20;;;;;;;;;;5101696;28;20047;-78
2022/09/15 08:59:46;;;;;;;2.92;2.05;;;;;;;;;;5086612;28;20507;-78
2022/09/15 09:02:21;;;;;;;2.10;1.92;;;;;;;;;;5083711;28;20319;-78
2022/09/15 09:05:04;;;;;;;2.30;2.10;;;;;;;;;;5078699;28;20132;-78
2022/09/15 09:07:34;;;;;;;2.47;2.00;;;;;;;;;;5068877;28;20079;-78
2022/09/15 09:10:28;;;;;;;3.47;1.80;;;;;;;;;;5078171;28;20036;-78
2022/09/15 09:13:18;;;;;;;5.60;2.40;;;;;;;;;;5058275;28;20078;-79
2022/09/15 09:15:45;;;;;;;4.15;1.98;;;;;;;;;;5080033;28;20047;-78
2022/09/15 09:18:33;;;;;;;2.45;1.90;;;;;;;;;;5070005;28;20040;-78
2022/09/15 09:21:09;;;;;;;2.58;1.45;;;;;;;;;;5080913;28;20055;-78
2022/09/15 09:23:42;;;;;;;2.70;1.95;;;;;;;;;;5080411;28;20040;-78
2022/09/15 09:26:11;;;;;;;4.30;1.52;;;;;;;;;;5079525;28;20298;-78
2022/09/15 09:28:52;;;;;;;3.38;1.77;;;;;;;;;;5084955;28;20056;-78
2022/09/15 09:31:21;;;;;;;3.63;1.50;;;;;;;;;;5083390;28;20044;-78
2022/09/15 09:34:02;;;;;;;3.22;2.00;;;;;;;;;;5083347;28;20073;-79
2022/09/15 09:36:29;;;;;;;3.67;1.80;;;;;;;;;;5084035;28;20055;-78
2022/09/15 09:38:57;;;;;;;2.17;1.50;;;;;;;;;;5082004;28;20044;-78
2022/09/15 09:41:34;;;;;;;2.58;1.60;;;;;;;;;;5081237;28;20044;-78
2022/09/15 09:44:09;;;;;;;3.17;1.92;;;;;;;;;;5076193;28;20118;-78
2022/09/15 09:46:37;;;;;;;1.70;1.50;;;;;;;;;;5082570;28;20040;-79
2022/09/15 09:49:12;;;;;;;2.85;2.40;;;;;;;;;;5087561;28;20097;-78
2022/09/15 09:51:52;;;;;;;6.93;1.52;;;;;;;;;;5077149;28;20055;-77
2022/09/15 09:54:21;;;;;;;2.22;1.38;;;;;;;;;;5081707;28;20051;-77
2022/09/15 09:56:49;;;;;;;4.57;2.05;;;;;;;;;;5083788;28;20036;-76
2022/09/15 09:59:33;;;;;;;2.75;1.70;;;;;;;;;;5069548;28;20492;-76
2022/09/15 10:02:10;;;;;;;3.05;1.20;;;;;;;;;;5071144;28;20403;-76
2022/09/15 10:04:38;;;;;;;1.45;1.33;;;;;;;;;;5077374;28;20049;-77
2022/09/15 10:07:06;;;;;;;1.70;1.30;;;;;;;;;;5079907;28;20131;-77
2022/09/15 10:09:33;;;;;;;1.48;1.38;;;;;;;;;;5079057;28;20507;-76
2022/09/15 10:12:02;;;;;;;2.25;1.52;;;;;;;;;;5081942;28;20040;-77
2022/09/15 10:14:33;;;;;;;2.88;1.30;;;;;;;;;;5076768;28;20492;-77
2022/09/15 10:17:00;;;;;;;2.50;1.08;;;;;;;;;;5084190;28;20044;-77
2022/09/15 10:19:29;;;;;;;1.60;1.38;;;;;;;;;;5081084;28;20044;-77
2022/09/15 10:21:57;;;;;;;2.60;1.35;;;;;;;;;;5068748;28;20051;-77
2022/09/15 10:24:35;;;;;;;1.40;1.30;;;;;;;;;;5077078;28;20036;-77
2022/09/15 10:27:07;;;;;;;1.35;1.25;;;;;;;;;;5081439;28;20051;-77
2022/09/15 10:29:41;;;;;;;2.85;1.70;;;;;;;;;;5081562;28;20040;-77
2022/09/15 10:32:16;;;;;;;6.97;5.47;;;;;;;;;;5065160;28;20051;-76
2022/09/15 10:34:57;;;;;;;1.90;1.80;;;;;;;;;;5068642;28;20627;-77
2022/09/15 10:37:34;;;;;;;1.50;1.40;;;;;;;;;;5080539;28;20484;-77
2022/09/15 10:40:22;;;;;;;1.45;1.30;;;;;;;;;;5067299;28;20044;-77
2022/09/15 10:42:55;;;;;;;1.35;1.20;;;;;;;;;;5063061;28;20626;-77
2022/09/15 10:45:33;;;;;;;1.98;1.15;;;;;;;;;;5079501;28;20044;-77
2022/09/15 10:48:13;;;;;;;1.15;1.10;;;;;;;;;;5075353;28;20052;-78
2022/09/15 10:50:53;;;;;;;1.75;1.10;;;;;;;;;;5078901;28;20044;-77
2022/09/15 10:53:30;;;;;;;1.85;1.20;;;;;;;;;;5072143;28;20504;-78
2022/09/15 10:56:03;;;;;;;3.83;1.30;;;;;;;;;;5077787;28;20036;-78
2022/09/15 10:58:48;;;;;;;1.20;1.10;;;;;;;;;;5068059;28;20458;-78
2022/09/15 11:01:28;;;;;;;1.58;1.30;;;;;;;;;;5080191;28;20059;-77
2022/09/15 11:04:07;;;;;;;2.05;1.00;;;;;;;;;;5071644;28;20442;-78
2022/09/15 11:06:44;;;;;;;1.52;1.30;;;;;;;;;;5070559;28;20407;-78
2022/09/15 11:09:24;;;;;;;1.10;1.00;;;;;;;;;;5044802;28;20040;-77
2022/09/15 11:12:02;;;;;;;2.85;1.10;;;;;;;;;;5077858;28;20036;-78
2022/09/15 11:14:33;;;;;;;1.80;1.10;;;;;;;;;;5079418;28;20400;-78
2022/09/15 11:17:13;;;;;;;2.92;1.20;;;;;;;;;;5074344;28;20559;-78
2022/09/15 11:19:59;;;;;;;1.33;1.00;;;;;;;;;;5073424;28;20044;-78
2022/09/15 11:22:35;;;;;;;1.23;1.10;;;;;;;;;;5070773;28;20412;-78
2022/09/15 11:25:05;;;;;;;1.17;0.90;;;;;;;;;;5073069;28;20059;-78
2022/09/15 11:27:45;;;;;;;2.58;1.23;;;;;;;;;;5088857;22;20047;-74
2022/09/15 11:30:39;;;;;;;3.78;1.30;;;;;;;;;;5021716;28;20051;-74
2022/09/15 11:33:18;;;;;;;6.95;1.95;;;;;;;;;;4963635;28;20046;-76
2022/09/15 11:35:58;;;;;;;7.47;2.50;;;;;;;;;;5003991;28;20378;-73
2022/09/15 11:38:39;;;;;;;6.93;1.90;;;;;;;;;;5019468;28;20046;-73
2022/09/15 11:41:13;;;;;;;4.18;1.45;;;;;;;;;;5004801;28;20038;-72
2022/09/15 11:43:46;;;;;;;3.47;1.88;;;;;;;;;;5004726;28;20041;-72
2022/09/15 11:46:18;;;;;;;2.63;1.70;;;;;;;;;;5002009;28;20050;-73
2022/09/15 11:48:49;;;;;;;6.03;2.05;;;;;;;;;;4997573;28;20050;-73
2022/09/15 11:51:18;;;;;;;5.05;1.85;;;;;;;;;;5003816;28;20133;-73
2022/09/15 11:53:53;;;;;;;5.22;1.88;;;;;;;;;;5000447;28;20030;-73
2022/09/15 11:56:27;;;;;;;2.70;1.77;;;;;;;;;;5002385;28;20042;-72
2022/09/15 11:59:14;;;;;;;5.50;1.90;;;;;;;;;;4994547;28;20390;-73
2022/09/15 12:02:01;;;;;;;7.43;2.30;;;;;;;;;;4999218;28;20038;-72
2022/09/15 12:04:34;;;;;;;8.57;3.00;;;;;;;;;;5000802;28;20046;-71
2022/09/15 12:07:19;;;;;;;8.27;2.67;;;;;;;;;;5001652;28;20141;-72
2022/09/15 12:09:48;;;;;;;10.63;3.28;;;;;;;;;;4993247;28;20045;-71
2022/09/15 12:12:17;;;;;;;3.90;2.53;;;;;;;;;;5002999;28;20137;-72
2022/09/15 12:14:46;;;;;;;7.85;2.58;;;;;;;;;;4996895;28;20368;-71
2022/09/15 12:17:16;;;;;;;3.65;2.53;;;;;;;;;;5004540;28;20038;-71
2022/09/15 12:19:59;;;;;;;6.57;2.40;;;;;;;;;;5005237;28;20046;-71
2022/09/15 12:22:32;;;;;;;2.88;1.85;;;;;;;;;;4999449;28;20058;-72
2022/09/15 12:25:05;;;;;;;3.13;2.13;;;;;;;;;;4985023;28;20117;-72
2022/09/15 12:27:32;;;;;;;3.83;2.42;;;;;;;;;;5001877;28;20038;-71
2022/09/15 12:30:00;;;;;;;7.35;6.32;;;;;;;;;;5003257;28;20502;-71
2022/09/15 12:32:28;;;;;;;7.22;4.45;;;;;;;;;;4999655;28;20041;-72
2022/09/15 12:34:55;;;;;;;3.58;2.80;;;;;;;;;;4985786;28;20049;-71
2022/09/15 12:37:24;;;;;;;4.05;3.50;;;;;;;;;;5006155;28;20054;-71
2022/09/15 12:39:52;;;;;;;4.85;3.30;;;;;;;;;;5001169;28;20046;-71
2022/09/15 12:42:28;;;;;;;6.18;2.63;;;;;;;;;;5001059;28;20053;-71
2022/09/15 12:44:58;;;;;;;6.93;2.95;;;;;;;;;;4989864;28;20085;-71
2022/09/15 12:47:28;;;;;;;5.50;2.75;;;;;;;;;;5006816;28;20048;-71
2022/09/15 12:49:57;;;;;;;4.10;2.55;;;;;;;;;;5005520;28;20034;-71
2022/09/15 12:52:25;;;;;;;8.40;2.95;;;;;;;;;;5008465;28;20050;-71
2022/09/15 12:54:54;;;;;;;9.13;2.75;;;;;;;;;;5008057;28;20072;-72
2022/09/15 12:57:27;;;;;;;2.97;2.30;;;;;;;;;;5002625;28;20050;-71
2022/09/15 13:00:14;;;;;;;2.72;2.13;;;;;;;;;;5008710;28;20458;-73
2022/09/15 13:02:43;;;;;;;2.45;2.00;;;;;;;;;;4998607;28;20046;-72
2022/09/15 13:05:11;;;;;;;4.72;2.13;;;;;;;;;;5006558;28;20069;-72
2022/09/15 13:07:55;;;;;;;4.85;1.92;;;;;;;;;;5007950;28;20611;-72
2022/09/15 13:10:27;;;;;;;2.67;2.00;;;;;;;;;;5006405;28;20077;-73
2022/09/15 13:13:03;;;;;;;4.20;2.15;;;;;;;;;;5008001;28;20048;-73
2022/09/15 13:15:32;;;;;;;2.60;2.40;;;;;;;;;;5002184;28;20092;-71
2022/09/15 13:18:04;;;;;;;2.08;1.45;;;;;;;;;;4993119;28;20042;-72
2022/09/15 13:20:33;;;;;;;1.30;1.30;;;;;;;;;;5013971;28;20544;-73
2022/09/15 13:23:01;;;;;;;9.40;8.57;;;;;;;;;;4988975;28;20042;-73
2022/09/15 13:25:29;;;;;;;1.77;1.40;;;;;;;;;;4996581;28;20077;-72
2022/09/15 13:27:58;;;;;;;1.60;1.50;;;;;;;;;;4998045;28;20473;-74
2022/09/15 13:30:51;;;;;;;0.98;0.77;;;;;;;;;;5007668;28;20046;-73
2022/09/15 13:33:25;;;;;;;1.40;1.30;;;;;;;;;;5005350;28;20056;-72
2022/09/15 13:35:58;;;;;;;1.20;1.20;;;;;;;;;;5004436;28;20050;-72
2022/09/15 13:38:42;;;;;;;0.85;0.85;;;;;;;;;;5007133;28;20048;-75
2022/09/15 13:41:22;;;;;;;2.05;1.17;;;;;;;;;;5002428;28;20409;-72
2022/09/15 13:44:08;;;;;;;1.10;1.10;;;;;;;;;;5000856;28;20439;-73
2022/09/15 13:46:43;;;;;;;2.75;1.20;;;;;;;;;;5003505;28;20036;-73
2022/09/15 13:49:17;;;;;;;10.15;1.50;;;;;;;;;;5005406;28;20046;-72
2022/09/15 13:51:50;;;;;;;3.00;1.30;;;;;;;;;;5002954;28;20786;-73
2022/09/15 13:54:19;;;;;;;7.25;1.70;;;;;;;;;;5004143;28;20098;-73
2022/09/15 13:56:47;;;;;;;2.05;1.83;;;;;;;;;;5000485;28;20096;-73
2022/09/15 13:59:30;;;;;;;2.78;1.70;;;;;;;;;;5001025;28;20152;-72
2022/09/15 14:01:58;;;;;;;1.42;1.33;;;;;;;;;;5003820;28;20378;-72
2022/09/15 14:04:28;;;;;;;3.85;2.00;;;;;;;;;;5006670;28;20104;-72
2022/09/15 14:06:57;;;;;;;1.38;1.05;;;;;;;;;;5005236;28;20100;-73
2022/09/15 14:09:30;;;;;;;1.73;1.38;;;;;;;;;;5007172;28;20042;-72
2022/09/15 14:11:58;;;;;;;4.50;1.90;;;;;;;;;;5002376;28;20046;-71
2022/09/15 14:14:29;;;;;;;2.08;0.90;;;;;;;;;;5003347;28;20409;-72
2022/09/15 14:16:56;;;;;;;1.83;1.45;;;;;;;;;;5005049;28;20034;-72
2022/09/15 14:19:37;;;;;;;2.13;1.13;;;;;;;;;;5006668;28;20065;-72
2022/09/15 14:22:19;;;;;;;2.22;1.48;;;;;;;;;;5005124;28;20065;-72
2022/09/15 14:24:47;;;;;;;1.65;0.95;;;;;;;;;;5020916;28;20065;-72
2022/09/15 14:27:22;;;;;;;1.35;1.10;;;;;;;;;;5006436;28;20238;-72
2022/09/15 14:29:54;;;;;;;2.40;1.20;;;;;;;;;;5005235;28;20501;-73
2022/09/15 14:32:21;;;;;;;;;;;;;;;;;;5004824;28;20556;-73
2022/09/15 14:34:49;;;;;;;2.15;1.38;;;;;;;;;;5005845;28;19991;-72
2022/09/15 14:37:22;;;;;;;1.70;1.42;;;;;;;;;;5006552;28;20398;-72
2022/09/15 14:39:57;;;;;;;1.90;1.63;;;;;;;;;;5006354;28;20493;-72
2022/09/15 14:42:31;;;;;;;1.17;1.00;;;;;;;;;;5002544;28;20621;-72
2022/09/15 14:45:10;;;;;;;1.90;1.50;;;;;;;;;;5003175;28;20049;-72
2022/09/15 14:48:01;;;;;;;2.53;1.20;;;;;;;;;;4993451;28;20486;-74
2022/09/15 14:50:29;;;;;;;1.30;1.13;;;;;;;;;;5005987;28;20046;-72
2022/09/15 14:53:33;;;;;;;2.05;1.10;;;;;;;;;;5004946;28;20500;-72
2022/09/15 14:56:12;;;;;;;1.05;0.90;;;;;;;;;;4962706;28;20524;-74
2022/09/15 14:58:42;;;;;;;1.35;1.10;;;;;;;;;;5004261;28;20532;-73
2022/09/15 15:01:10;;;;;;;0.88;0.88;;;;;;;;;;5005169;28;20493;-73
2022/09/15 15:03:44;;;;;;;1.15;1.02;;;;;;;;;;5004142;28;20670;-72
2022/09/15 15:06:17;;;;;;;2.30;0.95;;;;;;;;;;5002924;28;20042;-73
2022/09/15 15:09:16;;;;;;;1.10;0.98;;;;;;;;;;4998094;28;20041;-73
2022/09/15 15:11:43;;;;;;;1.40;0.70;;;;;;;;;;5003728;28;20045;-74
2022/09/15 15:14:11;;;;;;;3.53;0.90;;;;;;;;;;5005478;28;20046;-75
2022/09/15 15:16:49;;;;;;;1.80;0.60;;;;;;;;;;4985753;28;20108;-73
2022/09/15 15:19:50;;;;;;;0.88;0.88;;;;;;;;;;5005447;28;20116;-75
2022/09/15 15:22:20;;;;;;;0.50;0.50;;;;;;;;;;4993875;28;20049;-74
2022/09/15 15:24:48;;;;;;;0.60;0.60;;;;;;;;;;5005921;28;20046;-73
2022/09/15 15:27:38;;;;;;;0.75;0.55;;;;;;;;;;5005638;28;20105;-73
2022/09/15 15:30:28;;;;;;;0.88;0.88;;;;;;;;;;5005898;28;20053;-75
2022/09/15 15:33:06;;;;;;;3.08;0.93;;;;;;;;;;4992344;28;20390;-76
2022/09/15 15:35:34;;;;;;;1.05;0.95;;;;;;;;;;5002134;28;20073;-73
2022/09/15 15:38:05;;;;;;;4.20;1.67;;;;;;;;;;4995344;28;20452;-73
2022/09/15 15:40:33;;;;;;;1.42;1.30;;;;;;;;;;4999213;28;20117;-74
2022/09/15 15:43:05;;;;;;;4.60;1.30;;;;;;;;;;4997855;28;20104;-75
2022/09/15 15:45:33;;;;;;;5.45;1.80;;;;;;;;;;4996720;28;20050;-73
2022/09/15 15:48:02;;;;;;;3.13;1.60;;;;;;;;;;4997252;28;20038;-75
2022/09/15 15:50:31;;;;;;;3.95;1.90;;;;;;;;;;4994926;28;20038;-74
2022/09/15 15:53:01;;;;;;;2.45;1.80;;;;;;;;;;5012476;28;20052;-72
2022/09/15 15:55:42;;;;;;;1.63;1.35;;;;;;;;;;4994807;28;20045;-73
2022/09/15 15:58:10;;;;;;;3.08;1.80;;;;;;;;;;4994083;28;20673;-73
2022/09/15 16:00:46;;;;;;;5.60;1.80;;;;;;;;;;5004906;28;20758;-73
2022/09/15 16:03:14;;;;;;;2.45;1.70;;;;;;;;;;5002264;28;20060;-73
2022/09/15 16:05:43;;;;;;;9.27;2.13;;;;;;;;;;5004676;28;20077;-74
2022/09/15 16:08:13;;;;;;;6.93;3.30;;;;;;;;;;5004349;28;20049;-74
2022/09/15 16:10:46;;;;;;;16.95;8.32;;;;;;;;;;5008281;28;20081;-73
2022/09/15 16:13:15;;;;;;;5.95;4.20;;;;;;;;;;4993723;28;20073;-73
2022/09/15 16:15:43;;;;;;;5.82;3.30;;;;;;;;;;5004281;28;20030;-73
2022/09/15 16:18:11;;;;;;;5.07;2.45;;;;;;;;;;5007284;28;20042;-73
2022/09/15 16:20:39;;;;;;;7.35;1.20;;;;;;;;;;4992752;28;20037;-73
2022/09/15 16:23:07;;;;;;;5.10;0.90;;;;;;;;;;5004011;28;20038;-72
2022/09/15 16:25:34;;;;;;;13.57;1.55;;;;;;;;;;5003103;28;20046;-73
2022/09/15 16:28:02;;;;;;;1.83;1.20;;;;;;;;;;5004316;28;20485;-73
2022/09/15 16:30:29;;;;;;;1.88;1.30;;;;;;;;;;5001555;28;20348;-74
2022/09/15 16:32:56;;;;;;;4.10;1.50;;;;;;;;;;5003212;28;20038;-72
2022/09/15 16:35:29;;;;;;;1.00;1.00;;;;;;;;;;5003138;28;20207;-72
2022/09/15 16:37:56;;;;;;;1.73;1.30;;;;;;;;;;5000480;28;20042;-75
2022/09/15 16:40:24;;;;;;;6.97;1.40;;;;;;;;;;5001292;28;20870;-73
2022/09/15 16:42:51;;;;;;;3.00;2.22;;;;;;;;;;4997857;28;20434;-74
2022/09/15 16:45:25;;;;;;;4.40;1.60;;;;;;;;;;4999180;28;20449;-74
2022/09/15 16:47:52;;;;;;;3.28;2.67;;;;;;;;;;4999388;28;20050;-72
2022/09/15 16:50:20;;;;;;;7.50;1.92;;;;;;;;;;5000883;28;20426;-72
2022/09/15 16:52:47;;;;;;;4.13;2.40;;;;;;;;;;4999197;28;20117;-73
2022/09/15 16:55:34;;;;;;;2.25;1.70;;;;;;;;;;4997658;28;20478;-72
2022/09/15 16:58:03;;;;;;;3.13;2.53;;;;;;;;;;4987460;28;20549;-73
2022/09/15 17:00:31;;;;;;;2.03;1.63;;;;;;;;;;5008513;28;20053;-73
2022/09/15 17:02:58;;;;;;;4.68;2.30;;;;;;;;;;5004428;28;20096;-73
2022/09/15 17:05:27;;;;;;;1.50;1.40;;;;;;;;;;4999821;28;20292;-73
2022/09/15 17:07:55;;;;;;;3.90;2.00;;;;;;;;;;4996445;28;20038;-73
2022/09/15 17:10:22;;;;;;;4.38;1.60;;;;;;;;;;4989939;28;20454;-74
2022/09/15 17:12:50;;;;;;;6.80;3.20;;;;;;;;;;4985784;28;20050;-74
2022/09/15 17:15:17;;;;;;;7.95;2.72;;;;;;;;;;5002050;28;20096;-74
2022/09/15 17:17:45;;;;;;;7.93;2.88;;;;;;;;;;5005374;28;20501;-75
2022/09/15 17:20:12;;;;;;;9.18;4.00;;;;;;;;;;5006031;28;20070;-74
2022/09/15 17:22:40;;;;;;;1.90;1.08;;;;;;;;;;5006469;28;20049;-73
2022/09/15 17:25:26;;;;;;;3.67;0.80;;;;;;;;;;5004981;28;20045;-71
2022/09/15 17:27:54;;;;;;;1.55;1.00;;;;;;;;;;4995176;28;20466;-72
2022/09/15 17:30:22;;;;;;;3.83;1.58;;;;;;;;;;4993502;28;20061;-72
2022/09/15 17:32:50;;;;;;;3.25;1.58;;;;;;;;;;4986631;28;20046;-73
2022/09/15 17:35:25;;;;;;;2.22;2.03;;;;;;;;;;4994051;28;20072;-73
2022/09/15 17:37:52;;;;;;;2.08;1.30;;;;;;;;;;4999487;28;20037;-72
2022/09/15 17:40:20;;;;;;;2.03;1.80;;;;;;;;;;5005773;28;20053;-73
2022/09/15 17:42:48;;;;;;;2.58;2.00;;;;;;;;;;5006524;28;20472;-72
2022/09/15 17:45:17;;;;;;;3.90;2.13;;;;;;;;;;4999520;28;20049;-72
2022/09/15 17:47:44;;;;;;;2.40;2.25;;;;;;;;;;5006993;28;20092;-72
2022/09/15 17:50:12;;;;;;;4.70;1.95;;;;;;;;;;5007555;28;20042;-72
2022/09/15 17:52:39;;;;;;;2.80;2.45;;;;;;;;;;4995961;28;20046;-72
2022/09/15 17:55:15;;;;;;;2.45;2.20;;;;;;;;;;4988883;28;20039;-72
2022/09/15 17:57:42;;;;;;;3.65;3.10;;;;;;;;;;5006072;28;20417;-69
2022/09/15 18:00:12;;;;;;;6.20;2.50;;;;;;;;;;5004218;28;20076;-70
2022/09/15 18:02:41;;;;;;;3.53;2.67;;;;;;;;;;4997062;28;20108;-66
2022/09/15 18:05:16;;;;;;;2.38;2.10;;;;;;;;;;5003831;28;20046;-69
2022/09/15 18:07:44;;;;;;;3.72;2.60;;;;;;;;;;4995488;28;20050;-67
2022/09/15 18:10:12;;;;;;;2.08;1.90;;;;;;;;;;4998253;28;20417;-69
2022/09/15 18:12:39;;;;;;;4.05;2.10;;;;;;;;;;4998063;28;20050;-69
2022/09/15 18:15:32;;;;;;;4.03;1.98;;;;;;;;;;5002189;28;20029;-68
2022/09/15 18:18:02;;;;;;;1.77;1.65;;;;;;;;;;5003416;28;20092;-67
2022/09/15 18:20:31;;;;;;;2.35;2.17;;;;;;;;;;5003757;28;20068;-68
2022/09/15 18:22:59;;;;;;;2.25;1.92;;;;;;;;;;5017469;28;20498;-69
2022/09/15 18:25:30;;;;;;;1.67;1.58;;;;;;;;;;5000533;28;20052;-69
2022/09/15 18:27:58;;;;;;;;;;;;;;;;;;5005460;28;20060;-67
2022/09/15 18:30:27;;;;;;;3.40;1.83;;;;;;;;;;5002956;28;19991;-69
2022/09/15 18:32:54;;;;;;;3.28;2.72;;;;;;;;;;5003146;28;20062;-65
2022/09/15 18:35:22;;;;;;;2.45;2.25;;;;;;;;;;5003999;28;20080;-65
2022/09/15 18:37:53;;;;;;;2.85;2.40;;;;;;;;;;4994224;28;20268;-69
2022/09/15 18:40:21;;;;;;;6.22;3.13;;;;;;;;;;4999669;28;20461;-69
2022/09/15 18:42:48;;;;;;;5.40;2.70;;;;;;;;;;5003713;28;20074;-67
2022/09/15 18:45:16;;;;;;;2.15;2.00;;;;;;;;;;4998190;28;20053;-70
2022/09/15 18:47:48;;;;;;;4.20;3.20;;;;;;;;;;4977742;28;20053;-69
2022/09/15 18:50:16;;;;;;;7.75;3.15;;;;;;;;;;4998810;28;20113;-67
2022/09/15 18:52:43;;;;;;;5.95;2.75;;;;;;;;;;5005046;28;20164;-69
2022/09/15 18:55:14;;;;;;;3.63;2.78;;;;;;;;;;5004533;28;20046;-70
2022/09/15 18:57:41;;;;;;;4.78;3.38;;;;;;;;;;5004966;28;20113;-68
2022/09/15 19:00:11;;;;;;;4.30;3.03;;;;;;;;;;5020739;28;20512;-69
2022/09/15 19:02:38;;;;;;;5.03;3.60;;;;;;;;;;4985145;28;20056;-69
2022/09/15 19:05:06;;;;;;;9.32;4.40;;;;;;;;;;4983623;28;20070;-67
2022/09/15 19:07:33;;;;;;;5.75;4.43;;;;;;;;;;4986031;28;20610;-67
2022/09/15 19:10:01;;;;;;;6.43;4.65;;;;;;;;;;5002039;28;20141;-69
2022/09/15 19:12:28;;;;;;;7.15;5.32;;;;;;;;;;5005020;28;20049;-69
2022/09/15 19:14:55;;;;;;;9.55;5.30;;;;;;;;;;4997396;28;20148;-68
2022/09/15 19:17:23;;;;;;;6.88;4.20;;;;;;;;;;4988796;28;20060;-66
2022/09/15 19:19:50;;;;;;;5.65;4.13;;;;;;;;;;4993564;28;20046;-66
2022/09/15 19:22:18;;;;;;;5.43;4.07;;;;;;;;;;4997179;28;20387;-69
2022/09/15 19:24:45;;;;;;;7.65;4.90;;;;;;;;;;4992280;28;20074;-69
2022/09/15 19:27:12;;;;;;;11.57;7.10;;;;;;;;;;4985650;28;20457;-69
2022/09/15 19:29:40;;;;;;;7.90;7.10;;;;;;;;;;4993362;28;20049;-69
2022/09/15 19:32:09;;;;;;;8.10;7.28;;;;;;;;;;4994425;28;20225;-68
2022/09/15 19:34:37;;;;;;;9.75;5.13;;;;;;;;;;5013624;28;20100;-70
2022/09/15 19:37:05;;;;;;;14.27;8.63;;;;;;;;;;4992553;28;20316;-69
2022/09/15 19:39:39;;;;;;;8.55;7.75;;;;;;;;;;4987719;28;20548;-68
2022/09/15 19:42:07;;;;;;;7.10;5.13;;;;;;;;;;4987155;28;20475;-69
2022/09/15 19:44:34;;;;;;;6.85;4.30;;;;;;;;;;4988085;28;20038;-68
2022/09/15 19:47:02;;;;;;;3.42;3.20;;;;;;;;;;4994590;28;20100;-66
2022/09/15 19:49:29;;;;;;;6.63;4.13;;;;;;;;;;4999949;28;20050;-69
2022/09/15 19:51:56;;;;;;;4.82;3.60;;;;;;;;;;4999713;28;20034;-70
2022/09/15 19:54:28;;;;;;;4.30;3.92;;;;;;;;;;4995857;28;20038;-69
2022/09/15 19:56:56;;;;;;;7.82;3.78;;;;;;;;;;4998376;28;20049;-66
2022/09/15 19:59:23;;;;;;;4.35;2.95;;;;;;;;;;4996165;28;20073;-70
2022/09/15 20:01:57;;;;;;;3.40;3.00;;;;;;;;;;5011532;22;20073;-75
2022/09/15 20:04:26;;;;;;;5.65;4.07;;;;;;;;;;5019735;28;20045;-74
2022/09/15 20:06:54;;;;;;;3.78;3.47;;;;;;;;;;4973984;28;20056;-75
2022/09/15 20:09:22;;;;;;;3.65;3.10;;;;;;;;;;5019639;28;20042;-74
2022/09/15 20:11:53;;;;;;;2.97;2.78;;;;;;;;;;5017266;28;20053;-76
2022/09/15 20:14:22;;;;;;;3.47;2.88;;;;;;;;;;5024161;28;20492;-73
2022/09/15 20:16:53;;;;;;;3.20;2.90;;;;;;;;;;5031176;28;20049;-78
2022/09/15 20:19:30;;;;;;;3.85;3.50;;;;;;;;;;5028479;28;20049;-72
2022/09/15 20:21:58;;;;;;;3.30;3.10;;;;;;;;;;5025388;28;20065;-73
2022/09/15 20:24:25;;;;;;;3.05;2.85;;;;;;;;;;5021158;28;20504;-76
2022/09/15 20:26:52;;;;;;;3.13;2.75;;;;;;;;;;5040389;28;20505;-73
2022/09/15 20:29:20;;;;;;;3.22;2.90;;;;;;;;;;5030412;28;20245;-76
2022/09/15 20:31:48;;;;;;;6.13;3.30;;;;;;;;;;5031974;28;20042;-72
2022/09/15 20:34:17;;;;;;;3.47;3.17;;;;;;;;;;5029492;28;20117;-74
2022/09/15 20:36:49;;;;;;;2.63;2.42;;;;;;;;;;5030294;28;20390;-74
2022/09/15 20:39:40;;;;;;;3.40;3.10;;;;;;;;;;5027884;28;20270;-76
2022/09/15 20:42:08;;;;;;;4.32;3.92;;;;;;;;;;5028293;28;20041;-73
2022/09/15 20:44:35;;;;;;;2.80;2.60;;;;;;;;;;5037327;28;20073;-73
2022/09/15 20:47:03;;;;;;;4.70;3.72;;;;;;;;;;5022498;28;20072;-74
2022/09/15 20:49:30;;;;;;;3.28;2.92;;;;;;;;;;5018894;28;20061;-75
2022/09/15 20:51:57;;;;;;;6.15;3.28;;;;;;;;;;5024621;28;20061;-74
2022/09/15 20:54:24;;;;;;;3.60;3.13;;;;;;;;;;5025438;28;20057;-75
2022/09/15 20:56:52;;;;;;;6.68;3.90;;;;;;;;;;5026619;28;20049;-75
2022/09/15 20:59:19;;;;;;;4.22;3.22;;;;;;;;;;5027219;28;20065;-75
2022/09/15 21:01:46;;;;;;;3.90;2.78;;;;;;;;;;5027914;28;20045;-76
2022/09/15 21:04:14;;;;;;;8.30;3.85;;;;;;;;;;5020465;28;20064;-72
2022/09/15 21:06:41;;;;;;;4.00;2.88;;;;;;;;;;5014583;28;20431;-74
2022/09/15 21:09:09;;;;;;;3.72;3.38;;;;;;;;;;5006929;28;20076;-73
2022/09/15 21:11:36;;;;;;;4.40;3.45;;;;;;;;;;5020966;28;20057;-75
2022/09/15 21:14:03;;;;;;;3.90;3.58;;;;;;;;;;5028562;28;20125;-76
2022/09/15 21:16:33;;;;;;;5.22;3.80;;;;;;;;;;5022410;28;20452;-75
2022/09/15 21:19:01;;;;;;;2.88;2.67;;;;;;;;;;5022889;28;20132;-74
2022/09/15 21:21:29;;;;;;;3.60;3.30;;;;;;;;;;5020440;28;20060;-74
2022/09/15 21:23:59;;;;;;;4.47;3.40;;;;;;;;;;5015242;28;20041;-73
2022/09/15 21:26:28;;;;;;;5.95;3.47;;;;;;;;;;5021920;28;20033;-73
2022/09/15 21:28:56;;;;;;;8.07;3.90;;;;;;;;;;5027636;28;20049;-76
2022/09/15 21:31:25;;;;;;;4.65;3.90;;;;;;;;;;5001805;28;20091;-75
2022/09/15 21:33:53;;;;;;;4.82;3.45;;;;;;;;;;5026934;28;20087;-73
2022/09/15 21:36:22;;;;;;;3.30;3.00;;;;;;;;;;5026319;28;20041;-72
2022/09/15 21:38:50;;;;;;;4.93;4.03;;;;;;;;;;5028655;28;20049;-75
2022/09/15 21:41:20;;;;;;;3.65;3.35;;;;;;;;;;5022768;28;20045;-76
2022/09/15 21:43:48;;;;;;;3.88;3.38;;;;;;;;;;5019882;28;20045;-76
2022/09/15 21:46:17;;;;;;;4.97;3.20;;;;;;;;;;5010144;28;20050;-74
2022/09/15 21:48:48;;;;;;;4.18;3.63;;;;;;;;;;4999962;28;20041;-73
2022/09/15 21:51:19;;;;;;;6.35;5.75;;;;;;;;;;5037525;28;20060;-74
2022/09/15 21:53:52;;;;;;;3.65;3.08;;;;;;;;;;5027306;28;20033;-75
2022/09/15 21:56:20;;;;;;;5.55;4.13;;;;;;;;;;5023951;28;20042;-73
2022/09/15 21:58:47;;;;;;;5.45;4.10;;;;;;;;;;5026054;28;20037;-76
2022/09/15 22:01:19;;;;;;;5.32;4.00;;;;;;;;;;5021860;28;20103;-76
2022/09/15 22:03:49;;;;;;;5.30;4.15;;;;;;;;;;5023573;28;20744;-76
2022/09/15 22:06:17;;;;;;;9.07;4.88;;;;;;;;;;5015995;28;20037;-74
2022/09/15 22:08:45;;;;;;;4.85;4.15;;;;;;;;;;5018328;28;20049;-74
2022/09/15 22:11:13;;;;;;;5.18;4.13;;;;;;;;;;5023904;28;20038;-75
2022/09/15 22:13:41;;;;;;;5.35;4.57;;;;;;;;;;5021993;28;20873;-77
2022/09/15 22:16:12;;;;;;;7.28;4.50;;;;;;;;;;5021650;28;20056;-75
2022/09/15 22:18:40;;;;;;;4.80;4.30;;;;;;;;;;5029803;28;20037;-75
2022/09/15 22:21:10;;;;;;;4.82;4.35;;;;;;;;;;5024823;28;20033;-74
2022/09/15 22:23:37;;;;;;;3.92;3.63;;;;;;;;;;5025571;28;20037;-75
2022/09/15 22:26:09;;;;;;;5.40;4.22;;;;;;;;;;5025252;28;20045;-76
2022/09/15 22:28:37;;;;;;;5.15;4.13;;;;;;;;;;5041532;28;20053;-76
2022/09/15 22:31:06;;;;;;;6.18;4.10;;;;;;;;;;5039713;28;20087;-75
2022/09/15 22:33:34;;;;;;;5.07;4.20;;;;;;;;;;5027301;28;20034;-76
2022/09/15 22:36:01;;;;;;;4.82;4.40;;;;;;;;;;5023531;28;20448;-76
2022/09/15 22:38:29;;;;;;;4.80;3.95;;;;;;;;;;5026521;28;20512;-76
2022/09/15 22:41:02;;;;;;;5.35;3.65;;;;;;;;;;5024018;28;20052;-75
2022/09/15 22:43:29;;;;;;;4.47;3.83;;;;;;;;;;5042682;28;20109;-75
2022/09/15 22:45:57;;;;;;;5.15;4.70;;;;;;;;;;5037778;28;20042;-75
2022/09/15 22:48:24;;;;;;;10.43;5.10;;;;;;;;;;5024822;28;20044;-74
2022/09/15 22:50:52;;;;;;;10.68;4.90;;;;;;;;;;5021134;28;20048;-74
2022/09/15 22:53:20;;;;;;;9.38;4.80;;;;;;;;;;5023012;28;20049;-73
2022/09/15 22:55:47;;;;;;;10.98;5.47;;;;;;;;;;5021102;28;20045;-76
2022/09/15 22:58:15;;;;;;;6.82;4.60;;;;;;;;;;5038342;28;20049;-76